Time;durP1;ratioP1;P1;durP2;ratioP2;P2;SDS_P1;SDS_P2;PMS_P1;PMS_P2;Temp;Humidity;BMP_temperature;BMP_pressure;BME280_temperature;BME280_humidity;BME280_pressure;Samples;Min_cycle;Max_cycle;Signal;HPM_P1;HPM_P2
2024/01/21 00:01:11;;;;;;;12.52;4.20;;;;;;;;;;5056853;28;20059;-72
2024/01/21 00:04:51;;;;;;;9.70;4.60;;;;;;;;;;5050808;28;20420;-69
2024/01/21 00:08:32;;;;;;;10.88;4.97;;;;;;;;;;5050161;28;20071;-70
2024/01/21 00:12:15;;;;;;;12.43;4.97;;;;;;;;;;5047988;28;20047;-70
2024/01/21 00:15:55;;;;;;;13.35;5.13;;;;;;;;;;5046838;28;20279;-70
2024/01/21 00:19:35;;;;;;;10.40;4.07;;;;;;;;;;5043074;28;20068;-69
2024/01/21 00:23:17;;;;;;;16.65;4.60;;;;;;;;;;5036128;28;20037;-72
2024/01/21 00:26:58;;;;;;;6.63;4.13;;;;;;;;;;5052838;28;20060;-71
2024/01/21 00:30:38;;;;;;;10.13;3.88;;;;;;;;;;5052807;28;20472;-72
2024/01/21 00:34:19;;;;;;;9.20;3.88;;;;;;;;;;5053045;28;20073;-71
2024/01/21 00:37:59;;;;;;;8.73;4.18;;;;;;;;;;5047228;28;20060;-69
2024/01/21 00:41:39;;;;;;;10.85;4.18;;;;;;;;;;5039929;28;20763;-69
2024/01/21 00:45:20;;;;;;;9.40;4.60;;;;;;;;;;5046905;28;20049;-70
2024/01/21 00:49:00;;;;;;;14.95;4.70;;;;;;;;;;5036454;28;20049;-69
2024/01/21 00:52:41;;;;;;;9.93;4.30;;;;;;;;;;5048402;28;20378;-69
2024/01/21 00:56:21;;;;;;;8.27;4.95;;;;;;;;;;5048461;28;20048;-70
2024/01/21 01:00:01;;;;;;;11.95;5.05;;;;;;;;;;5044571;28;20044;-70
2024/01/21 01:03:42;;;;;;;8.23;4.22;;;;;;;;;;5052221;28;20049;-71
2024/01/21 01:07:27;;;;;;;9.57;4.45;;;;;;;;;;5047127;28;20049;-71
2024/01/21 01:11:07;;;;;;;12.10;5.15;;;;;;;;;;5045919;28;20049;-70
2024/01/21 01:14:48;;;;;;;13.88;5.50;;;;;;;;;;5050139;28;20381;-70
2024/01/21 01:18:28;;;;;;;10.00;4.85;;;;;;;;;;5044090;28;20037;-69
2024/01/21 01:22:12;;;;;;;9.63;4.88;;;;;;;;;;5051105;28;20110;-70
2024/01/21 01:25:52;;;;;;;8.07;5.00;;;;;;;;;;5050125;28;20095;-71
2024/01/21 01:29:32;;;;;;;10.23;5.30;;;;;;;;;;5043268;28;20045;-71
2024/01/21 01:33:13;;;;;;;11.57;5.18;;;;;;;;;;5045204;28;20068;-70
2024/01/21 01:36:56;;;;;;;12.45;5.13;;;;;;;;;;5041262;28;20052;-69
2024/01/21 01:40:36;;;;;;;9.40;5.03;;;;;;;;;;5047878;28;20052;-69
2024/01/21 01:44:17;;;;;;;9.82;5.57;;;;;;;;;;5050352;28;20079;-68
2024/01/21 01:47:57;;;;;;;9.98;5.32;;;;;;;;;;5055239;28;20060;-69
2024/01/21 01:51:38;;;;;;;11.57;5.55;;;;;;;;;;5044496;28;20514;-69
2024/01/21 01:55:20;;;;;;;12.75;6.00;;;;;;;;;;5041177;28;20051;-70
2024/01/21 01:59:06;;;;;;;15.18;6.47;;;;;;;;;;5054133;28;20088;-69
2024/01/21 02:02:45;;;;;;;13.00;5.72;;;;;;;;;;5050306;28;20047;-69
2024/01/21 02:06:25;;;;;;;11.77;5.95;;;;;;;;;;5044283;28;20049;-72
2024/01/21 02:10:06;;;;;;;11.25;5.43;;;;;;;;;;5053865;28;20060;-70
2024/01/21 02:13:46;;;;;;;10.73;5.57;;;;;;;;;;5049969;28;20040;-67
2024/01/21 02:17:26;;;;;;;8.05;4.80;;;;;;;;;;5049624;28;20053;-69
2024/01/21 02:21:07;;;;;;;10.05;4.85;;;;;;;;;;5041112;28;20473;-69
2024/01/21 02:24:47;;;;;;;9.48;5.32;;;;;;;;;;5047295;28;20136;-69
2024/01/21 02:28:28;;;;;;;8.05;4.72;;;;;;;;;;5050637;28;20053;-69
2024/01/21 02:32:09;;;;;;;7.47;4.78;;;;;;;;;;5047428;28;20055;-69
2024/01/21 02:35:49;;;;;;;7.90;4.45;;;;;;;;;;5054961;28;20044;-69
2024/01/21 02:39:30;;;;;;;9.35;4.38;;;;;;;;;;5047438;28;20546;-68
2024/01/21 02:43:10;;;;;;;9.65;4.90;;;;;;;;;;5047556;28;20048;-68
2024/01/21 02:46:50;;;;;;;9.25;5.40;;;;;;;;;;5046294;28;20199;-69
2024/01/21 02:50:31;;;;;;;9.68;4.97;;;;;;;;;;5049779;28;20044;-68
2024/01/21 02:54:11;;;;;;;8.13;5.07;;;;;;;;;;5047325;28;20072;-71
2024/01/21 02:57:51;;;;;;;9.38;5.10;;;;;;;;;;5056220;28;20065;-68
2024/01/21 03:01:32;;;;;;;10.27;4.70;;;;;;;;;;5045572;28;20060;-69
2024/01/21 03:05:29;;;;;;;8.05;4.75;;;;;;;;;;5051727;28;20044;-76
2024/01/21 03:09:09;;;;;;;10.77;5.18;;;;;;;;;;5050839;28;20766;-67
2024/01/21 03:12:49;;;;;;;6.22;4.13;;;;;;;;;;5046064;28;20049;-68
2024/01/21 03:16:30;;;;;;;7.03;4.18;;;;;;;;;;5050336;28;20084;-69
2024/01/21 03:20:10;;;;;;;7.50;4.28;;;;;;;;;;5055571;28;20485;-68
2024/01/21 03:23:50;;;;;;;7.85;4.32;;;;;;;;;;5051066;28;20048;-68
2024/01/21 03:27:31;;;;;;;8.38;4.20;;;;;;;;;;5047237;28;20135;-68
2024/01/21 03:31:11;;;;;;;7.28;4.05;;;;;;;;;;5040839;28;20544;-68
2024/01/21 03:34:53;;;;;;;6.22;3.92;;;;;;;;;;5045075;28;20040;-68
2024/01/21 03:38:33;;;;;;;6.57;3.80;;;;;;;;;;5046888;28;20045;-69
2024/01/21 03:42:13;;;;;;;9.57;4.00;;;;;;;;;;5041067;28;20037;-66
2024/01/21 03:45:54;;;;;;;11.50;4.40;;;;;;;;;;5046913;28;20429;-69
2024/01/21 03:49:34;;;;;;;6.85;3.90;;;;;;;;;;5050438;28;20033;-67
2024/01/21 03:53:14;;;;;;;9.13;4.07;;;;;;;;;;5040096;28;20045;-67
2024/01/21 03:56:58;;;;;;;6.80;3.88;;;;;;;;;;5046740;28;20590;-67
2024/01/21 04:00:39;;;;;;;8.80;4.25;;;;;;;;;;5041141;28;20041;-67
2024/01/21 04:04:20;;;;;;;7.70;4.20;;;;;;;;;;5048650;28;20136;-67
2024/01/21 04:08:01;;;;;;;7.10;4.13;;;;;;;;;;5040967;28;20278;-67
2024/01/21 04:11:41;;;;;;;9.68;4.90;;;;;;;;;;5039656;28;20053;-68
2024/01/21 04:15:21;;;;;;;10.15;4.57;;;;;;;;;;5051123;28;20430;-66
2024/01/21 04:19:02;;;;;;;9.32;5.40;;;;;;;;;;5057237;28;20048;-68
2024/01/21 04:22:42;;;;;;;12.30;6.03;;;;;;;;;;5050480;28;20548;-67
2024/01/21 04:26:22;;;;;;;9.90;6.40;;;;;;;;;;5051273;28;20056;-68
2024/01/21 04:30:03;;;;;;;10.63;5.80;;;;;;;;;;5046595;28;20565;-69
2024/01/21 04:33:43;;;;;;;11.52;6.10;;;;;;;;;;5046870;28;20037;-68
2024/01/21 04:37:23;;;;;;;12.95;6.50;;;;;;;;;;5045718;28;20331;-67
2024/01/21 04:41:04;;;;;;;9.93;7.05;;;;;;;;;;5050718;28;20079;-66
2024/01/21 04:44:44;;;;;;;11.05;6.82;;;;;;;;;;5044913;28;20051;-67
2024/01/21 04:48:25;;;;;;;11.75;7.40;;;;;;;;;;5048900;28;20057;-67
2024/01/21 04:52:06;;;;;;;15.48;7.63;;;;;;;;;;5044721;28;20048;-68
2024/01/21 04:55:47;;;;;;;11.77;7.43;;;;;;;;;;5049448;28;20056;-67
2024/01/21 04:59:27;;;;;;;13.32;7.93;;;;;;;;;;5049064;28;20092;-67
2024/01/21 05:03:08;;;;;;;12.88;8.57;;;;;;;;;;5042620;28;20041;-67
2024/01/21 05:06:48;;;;;;;14.80;8.35;;;;;;;;;;5043541;28;20044;-69
2024/01/21 05:10:28;;;;;;;12.93;8.23;;;;;;;;;;5048239;28;20075;-67
2024/01/21 05:14:11;;;;;;;13.85;7.47;;;;;;;;;;5042112;28;20045;-67
2024/01/21 05:17:52;;;;;;;12.80;7.55;;;;;;;;;;5044183;28;20192;-67
2024/01/21 05:21:32;;;;;;;15.18;8.35;;;;;;;;;;5049910;28;20067;-67
2024/01/21 05:25:15;;;;;;;15.60;7.43;;;;;;;;;;5044329;28;20058;-69
2024/01/21 05:28:59;;;;;;;21.58;8.50;;;;;;;;;;5051193;28;20393;-69
2024/01/21 05:32:39;;;;;;;16.20;7.93;;;;;;;;;;5049983;28;20070;-67
2024/01/21 05:36:20;;;;;;;17.65;8.32;;;;;;;;;;5047173;28;20055;-69
2024/01/21 05:40:00;;;;;;;15.63;8.80;;;;;;;;;;5043403;28;20052;-68
2024/01/21 05:43:41;;;;;;;19.35;8.80;;;;;;;;;;5049008;28;20392;-67
2024/01/21 05:47:22;;;;;;;19.38;9.00;;;;;;;;;;5045073;28;20092;-67
2024/01/21 05:51:02;;;;;;;17.42;9.05;;;;;;;;;;5041442;28;20049;-65
2024/01/21 05:54:43;;;;;;;13.68;8.70;;;;;;;;;;5037434;28;20037;-68
2024/01/21 05:58:23;;;;;;;16.20;8.48;;;;;;;;;;5051667;28;20490;-67
2024/01/21 06:02:07;;;;;;;19.35;8.07;;;;;;;;;;5047607;28;20049;-68
2024/01/21 06:05:45;;;;;;;13.20;6.88;;;;;;;;;;5053550;28;20128;-67
2024/01/21 06:09:25;;;;;;;12.95;7.30;;;;;;;;;;5043965;28;20037;-67
2024/01/21 06:13:05;;;;;;;13.68;7.57;;;;;;;;;;5047268;28;20045;-68
2024/01/21 06:16:46;;;;;;;16.38;6.63;;;;;;;;;;5050628;28;20059;-66
2024/01/21 06:20:26;;;;;;;17.02;6.82;;;;;;;;;;5053011;28;20053;-68
2024/01/21 06:24:06;;;;;;;9.35;6.63;;;;;;;;;;5046614;28;20052;-69
2024/01/21 06:27:49;;;;;;;15.27;6.75;;;;;;;;;;5055824;28;20504;-69
2024/01/21 06:31:28;;;;;;;13.90;6.97;;;;;;;;;;5044354;28;20044;-69
2024/01/21 06:35:09;;;;;;;12.23;6.93;;;;;;;;;;5054787;28;20140;-67
2024/01/21 06:38:50;;;;;;;11.75;7.68;;;;;;;;;;5053433;28;20547;-67
2024/01/21 06:42:31;;;;;;;12.48;7.05;;;;;;;;;;5052981;28;20041;-67
2024/01/21 06:46:11;;;;;;;12.85;6.43;;;;;;;;;;5048689;28;20040;-68
2024/01/21 06:49:52;;;;;;;11.30;6.45;;;;;;;;;;5052070;28;20037;-67
2024/01/21 06:53:33;;;;;;;14.77;6.82;;;;;;;;;;5048413;28;20044;-66
2024/01/21 06:57:13;;;;;;;11.52;6.55;;;;;;;;;;5050597;28;20286;-68
2024/01/21 07:00:54;;;;;;;11.68;6.22;;;;;;;;;;5046936;28;20560;-68
2024/01/21 07:04:35;;;;;;;14.02;6.55;;;;;;;;;;5044716;28;20060;-68
2024/01/21 07:08:17;;;;;;;13.85;6.28;;;;;;;;;;5047978;28;20481;-66
2024/01/21 07:12:04;;;;;;;10.65;6.15;;;;;;;;;;5045816;28;20041;-67
2024/01/21 07:15:42;;;;;;;10.83;6.20;;;;;;;;;;5042228;28;20381;-67
2024/01/21 07:19:23;;;;;;;10.55;6.85;;;;;;;;;;5053407;28;20278;-67
2024/01/21 07:23:04;;;;;;;9.48;6.30;;;;;;;;;;5053158;28;20102;-68
2024/01/21 07:26:45;;;;;;;12.95;6.20;;;;;;;;;;5048040;28;20043;-68
2024/01/21 07:30:25;;;;;;;10.23;6.38;;;;;;;;;;5038035;28;20052;-67
2024/01/21 07:34:10;;;;;;;9.20;5.82;;;;;;;;;;5048683;28;20173;-67
2024/01/21 07:37:50;;;;;;;14.60;6.28;;;;;;;;;;5041153;28;20102;-68
2024/01/21 07:41:30;;;;;;;9.05;5.53;;;;;;;;;;5047360;28;20378;-67
2024/01/21 07:45:12;;;;;;;9.32;6.13;;;;;;;;;;5048456;28;20051;-69
2024/01/21 07:48:53;;;;;;;11.57;5.13;;;;;;;;;;5047916;28;20045;-70
2024/01/21 07:52:35;;;;;;;10.27;5.20;;;;;;;;;;5043221;28;20060;-67
2024/01/21 07:56:16;;;;;;;13.02;5.40;;;;;;;;;;5043887;28;20527;-68
2024/01/21 07:59:57;;;;;;;6.32;4.38;;;;;;;;;;5035946;28;20049;-68
2024/01/21 08:03:37;;;;;;;10.80;5.20;;;;;;;;;;5031998;28;20130;-69
2024/01/21 08:07:19;;;;;;;9.93;5.65;;;;;;;;;;5035557;28;20124;-67
2024/01/21 08:10:59;;;;;;;10.75;6.47;;;;;;;;;;5039521;28;20041;-68
2024/01/21 08:14:42;;;;;;;11.73;6.93;;;;;;;;;;5033058;28;20050;-70
2024/01/21 08:18:23;;;;;;;11.80;6.88;;;;;;;;;;5042831;28;20749;-68
2024/01/21 08:22:03;;;;;;;9.90;6.38;;;;;;;;;;5025243;28;20057;-68
2024/01/21 08:25:45;;;;;;;15.00;6.15;;;;;;;;;;5031722;28;20708;-69
2024/01/21 08:29:27;;;;;;;9.93;6.20;;;;;;;;;;5037489;28;20508;-68
2024/01/21 08:33:06;;;;;;;9.73;6.30;;;;;;;;;;5032365;28;20128;-70
2024/01/21 08:36:39;;;;;;;8.70;6.38;;;;;;;;;;5031113;28;20632;-69
2024/01/21 08:40:21;;;;;;;11.25;6.93;;;;;;;;;;5037158;28;20072;-70
2024/01/21 08:44:02;;;;;;;10.70;6.93;;;;;;;;;;5035693;28;20088;-69
2024/01/21 08:47:43;;;;;;;13.75;6.75;;;;;;;;;;5038534;28;20523;-68
2024/01/21 08:51:23;;;;;;;14.02;6.90;;;;;;;;;;5035315;28;20052;-68
2024/01/21 08:55:05;;;;;;;10.68;6.05;;;;;;;;;;5030480;28;20135;-69
2024/01/21 08:58:45;;;;;;;12.10;6.05;;;;;;;;;;5038415;28;20080;-73
2024/01/21 09:02:26;;;;;;;9.82;5.72;;;;;;;;;;5033945;28;20051;-69
2024/01/21 09:06:09;;;;;;;9.45;5.45;;;;;;;;;;5033978;28;20071;-72
2024/01/21 09:09:53;;;;;;;11.10;5.60;;;;;;;;;;5037464;28;20489;-73
2024/01/21 09:13:33;;;;;;;9.05;4.97;;;;;;;;;;5030728;28;20135;-67
2024/01/21 09:17:14;;;;;;;8.30;5.65;;;;;;;;;;5022947;28;20456;-72
2024/01/21 09:20:54;;;;;;;11.50;5.28;;;;;;;;;;5020712;28;20117;-69
2024/01/21 09:24:34;;;;;;;12.70;6.20;;;;;;;;;;5019809;28;20084;-70
2024/01/21 09:28:15;;;;;;;10.45;5.65;;;;;;;;;;5013228;28;20087;-69
2024/01/21 09:31:55;;;;;;;8.43;4.80;;;;;;;;;;5020314;28;20049;-68
2024/01/21 09:35:37;;;;;;;7.32;4.00;;;;;;;;;;5010580;28;20060;-69
2024/01/21 09:39:17;;;;;;;7.50;3.47;;;;;;;;;;5015503;28;20072;-68
2024/01/21 09:42:58;;;;;;;7.40;3.20;;;;;;;;;;5018803;28;20041;-68
2024/01/21 09:46:38;;;;;;;6.20;3.60;;;;;;;;;;5018178;28;20908;-69
2024/01/21 09:50:20;;;;;;;14.40;9.65;;;;;;;;;;5032938;28;20037;-69
2024/01/21 09:54:04;;;;;;;9.82;5.03;;;;;;;;;;5033026;28;20045;-68
2024/01/21 09:57:43;;;;;;;6.35;3.42;;;;;;;;;;5034633;28;20092;-70
2024/01/21 10:01:25;;;;;;;5.00;3.25;;;;;;;;;;5031899;28;20049;-69
2024/01/21 10:05:05;;;;;;;5.18;3.28;;;;;;;;;;5036194;28;20067;-68
2024/01/21 10:08:46;;;;;;;7.32;3.25;;;;;;;;;;5042550;28;20116;-67
2024/01/21 10:12:27;;;;;;;6.60;3.15;;;;;;;;;;5036597;28;20049;-68
2024/01/21 10:16:07;;;;;;;5.28;3.10;;;;;;;;;;5033969;28;21512;-67
2024/01/21 10:19:51;;;;;;;7.18;3.00;;;;;;;;;;5040864;28;20053;-69
2024/01/21 10:23:31;;;;;;;5.43;3.05;;;;;;;;;;5039782;28;20455;-70
2024/01/21 10:27:11;;;;;;;5.18;2.90;;;;;;;;;;5038413;28;20095;-68
2024/01/21 10:30:54;;;;;;;5.07;3.20;;;;;;;;;;5042079;28;20136;-69
2024/01/21 10:34:34;;;;;;;7.30;3.08;;;;;;;;;;5037973;28;20048;-67
2024/01/21 10:38:16;;;;;;;6.72;3.40;;;;;;;;;;5031149;28;20134;-70
2024/01/21 10:41:57;;;;;;;3.58;2.13;;;;;;;;;;5040370;28;20150;-69
2024/01/21 10:45:38;;;;;;;5.47;2.50;;;;;;;;;;5034921;28;20049;-70
2024/01/21 10:49:18;;;;;;;5.53;1.90;;;;;;;;;;5038772;28;20052;-72
2024/01/21 10:53:00;;;;;;;4.63;2.30;;;;;;;;;;5048978;28;20043;-72
2024/01/21 10:56:37;;;;;;;7.20;1.92;;;;;;;;;;5051233;28;20044;-68
2024/01/21 10:59:44;;;;;;;4.82;2.10;;;;;;;;;;5043917;28;20501;-68
2024/01/21 11:03:23;;;;;;;3.22;2.00;;;;;;;;;;5050818;28;20190;-71
2024/01/21 11:07:02;;;;;;;5.63;1.80;;;;;;;;;;5049668;28;20075;-67
2024/01/21 11:10:42;;;;;;;2.63;1.58;;;;;;;;;;5047296;28;20132;-70
2024/01/21 11:13:52;;;;;;;4.35;2.17;;;;;;;;;;5048739;28;20141;-69
2024/01/21 11:16:30;;;;;;;3.88;2.00;;;;;;;;;;5047176;28;20111;-69
2024/01/21 11:19:07;;;;;;;4.07;1.88;;;;;;;;;;5058445;28;20049;-66
2024/01/21 11:21:42;;;;;;;4.05;1.70;;;;;;;;;;5052171;28;20037;-71
2024/01/21 11:24:13;;;;;;;3.53;1.50;;;;;;;;;;5053548;28;20048;-70
2024/01/21 11:26:47;;;;;;;1.98;1.55;;;;;;;;;;5048369;28;20575;-68
2024/01/21 11:29:32;;;;;;;6.22;1.80;;;;;;;;;;5045877;28;20090;-71
2024/01/21 11:32:03;;;;;;;2.50;1.50;;;;;;;;;;5047330;28;20053;-72
2024/01/21 11:34:36;;;;;;;2.80;1.67;;;;;;;;;;5049318;28;20348;-69
2024/01/21 11:37:03;;;;;;;2.78;1.92;;;;;;;;;;5042145;28;20136;-69
2024/01/21 11:39:29;;;;;;;3.20;2.00;;;;;;;;;;5025180;28;20371;-70
2024/01/21 11:41:56;;;;;;;2.70;1.75;;;;;;;;;;5026734;28;20141;-71
2024/01/21 11:44:29;;;;;;;4.00;1.80;;;;;;;;;;5043915;28;20629;-70
2024/01/21 11:46:57;;;;;;;2.60;1.70;;;;;;;;;;5026761;28;20041;-71
2024/01/21 11:49:24;;;;;;;2.92;1.45;;;;;;;;;;5039451;28;20067;-71
2024/01/21 11:51:51;;;;;;;4.07;2.30;;;;;;;;;;5039326;28;20350;-71
2024/01/21 11:54:17;;;;;;;4.68;2.08;;;;;;;;;;5029471;28;20076;-70
2024/01/21 11:56:44;;;;;;;5.30;2.75;;;;;;;;;;5031770;28;20045;-69
2024/01/21 11:59:12;;;;;;;3.67;1.88;;;;;;;;;;5046518;28;20567;-72
2024/01/21 12:01:39;;;;;;;3.40;1.60;;;;;;;;;;5057011;28;20508;-70
2024/01/21 12:04:07;;;;;;;2.03;1.40;;;;;;;;;;5053717;28;20060;-71
2024/01/21 12:06:37;;;;;;;1.90;1.50;;;;;;;;;;5068761;28;20041;-72
2024/01/21 12:09:05;;;;;;;4.22;1.65;;;;;;;;;;5052039;28;20049;-71
2024/01/21 12:11:33;;;;;;;3.00;1.50;;;;;;;;;;5049419;28;20044;-69
2024/01/21 12:14:00;;;;;;;3.08;1.65;;;;;;;;;;5051340;28;20615;-70
2024/01/21 12:16:27;;;;;;;2.35;1.63;;;;;;;;;;5037379;28;20067;-69
2024/01/21 12:18:54;;;;;;;4.03;2.13;;;;;;;;;;5049799;28;20124;-72
2024/01/21 12:21:23;;;;;;;2.88;1.83;;;;;;;;;;5035027;28;20509;-71
2024/01/21 12:23:52;;;;;;;3.13;1.88;;;;;;;;;;5059915;28;20041;-69
2024/01/21 12:26:21;;;;;;;6.00;1.50;;;;;;;;;;5060117;28;20450;-71
2024/01/21 12:28:57;;;;;;;3.22;1.77;;;;;;;;;;5042470;28;20052;-71
2024/01/21 12:31:29;;;;;;;4.18;2.40;;;;;;;;;;5048701;28;20049;-73
2024/01/21 12:34:06;;;;;;;3.97;2.40;;;;;;;;;;5040409;28;20053;-72
2024/01/21 12:36:34;;;;;;;2.90;2.20;;;;;;;;;;5025458;28;20521;-70
2024/01/21 12:39:03;;;;;;;5.00;2.50;;;;;;;;;;5046578;28;20052;-71
2024/01/21 12:41:32;;;;;;;6.50;2.42;;;;;;;;;;5047536;28;20632;-69
2024/01/21 12:43:57;;;;;;;6.63;2.50;;;;;;;;;;5038016;28;20309;-69
2024/01/21 12:46:26;;;;;;;6.10;2.83;;;;;;;;;;5023530;28;20048;-70
2024/01/21 12:48:53;;;;;;;8.18;2.55;;;;;;;;;;5037654;28;20052;-72
2024/01/21 12:51:20;;;;;;;4.70;2.15;;;;;;;;;;5046978;28;20052;-70
2024/01/21 12:53:49;;;;;;;5.93;2.33;;;;;;;;;;5047046;28;20405;-70
2024/01/21 12:56:16;;;;;;;4.82;2.20;;;;;;;;;;5049968;28;20445;-71
2024/01/21 12:58:43;;;;;;;7.32;2.75;;;;;;;;;;5048209;28;20068;-69
2024/01/21 13:01:12;;;;;;;9.73;2.50;;;;;;;;;;5046984;28;20261;-71
2024/01/21 13:03:43;;;;;;;8.88;2.55;;;;;;;;;;5047883;28;20147;-72
2024/01/21 13:06:12;;;;;;;6.72;2.95;;;;;;;;;;5048647;28;20045;-69
2024/01/21 13:08:39;;;;;;;10.38;3.10;;;;;;;;;;5033471;28;20082;-70
2024/01/21 13:11:07;;;;;;;7.78;2.90;;;;;;;;;;5044702;28;20045;-71
2024/01/21 13:13:33;;;;;;;6.50;2.38;;;;;;;;;;5061159;28;20052;-70
2024/01/21 13:16:00;;;;;;;7.47;2.55;;;;;;;;;;5044078;28;20048;-71
2024/01/21 13:18:27;;;;;;;12.00;2.90;;;;;;;;;;5029337;28;20092;-70
2024/01/21 13:20:53;;;;;;;5.75;2.92;;;;;;;;;;5039024;28;20051;-71
2024/01/21 13:23:18;;;;;;;5.63;2.70;;;;;;;;;;5042559;28;20050;-70
2024/01/21 13:25:45;;;;;;;5.97;2.60;;;;;;;;;;5029891;28;20135;-68
2024/01/21 13:28:27;;;;;;;21.83;3.20;;;;;;;;;;5035944;28;20037;-71
2024/01/21 13:30:55;;;;;;;7.95;2.97;;;;;;;;;;5040078;28;20120;-72
2024/01/21 13:33:23;;;;;;;10.68;2.53;;;;;;;;;;5040297;28;20059;-71
2024/01/21 13:35:52;;;;;;;3.40;2.30;;;;;;;;;;5025516;28;20080;-69
2024/01/21 13:38:33;;;;;;;8.35;2.35;;;;;;;;;;5051743;28;20118;-70
2024/01/21 13:41:01;;;;;;;5.55;1.98;;;;;;;;;;5040497;28;20052;-69
2024/01/21 13:43:27;;;;;;;5.82;2.15;;;;;;;;;;5049007;28;20052;-69
2024/01/21 13:45:54;;;;;;;3.03;2.00;;;;;;;;;;5038522;28;20052;-69
2024/01/21 13:48:21;;;;;;;3.63;2.20;;;;;;;;;;5032870;28;20432;-69
2024/01/21 13:50:48;;;;;;;4.20;2.22;;;;;;;;;;5029154;28;20509;-70
2024/01/21 13:53:17;;;;;;;3.20;1.85;;;;;;;;;;5043024;28;20071;-71
2024/01/21 13:55:45;;;;;;;3.55;1.67;;;;;;;;;;5048360;28;20068;-70
2024/01/21 13:58:13;;;;;;;6.50;2.38;;;;;;;;;;5048135;28;20052;-69
2024/01/21 14:00:41;;;;;;;5.80;1.80;;;;;;;;;;5048975;28;20497;-70
2024/01/21 14:03:07;;;;;;;5.07;1.70;;;;;;;;;;5049149;28;20404;-70
2024/01/21 14:05:38;;;;;;;10.00;2.20;;;;;;;;;;5050648;28;20048;-70
2024/01/21 14:08:05;;;;;;;5.45;2.40;;;;;;;;;;5049480;28;20414;-71
2024/01/21 14:10:34;;;;;;;7.00;2.55;;;;;;;;;;5044072;28;20055;-69
2024/01/21 14:13:00;;;;;;;6.85;2.58;;;;;;;;;;5047829;28;20102;-69
2024/01/21 14:15:26;;;;;;;7.57;2.20;;;;;;;;;;5044239;28;20060;-69
2024/01/21 14:17:53;;;;;;;12.27;2.70;;;;;;;;;;5053740;28;20382;-70
2024/01/21 14:20:20;;;;;;;4.10;2.38;;;;;;;;;;5062309;28;20052;-71
2024/01/21 14:22:46;;;;;;;4.03;1.90;;;;;;;;;;5049408;28;20043;-71
2024/01/21 14:25:27;;;;;;;7.85;2.90;;;;;;;;;;5048236;28;20493;-70
2024/01/21 14:27:54;;;;;;;10.88;2.40;;;;;;;;;;5051007;28;20045;-73
2024/01/21 14:30:34;;;;;;;7.13;1.98;;;;;;;;;;5042340;28;24002;-70
2024/01/21 14:33:00;;;;;;;7.05;2.72;;;;;;;;;;5041672;28;20049;-71
2024/01/21 14:35:27;;;;;;;7.45;2.47;;;;;;;;;;5027541;28;20037;-70
2024/01/21 14:37:55;;;;;;;7.90;2.30;;;;;;;;;;5047154;28;20568;-69
2024/01/21 14:40:27;;;;;;;7.78;2.40;;;;;;;;;;5038738;28;20060;-70
2024/01/21 14:42:54;;;;;;;7.82;3.00;;;;;;;;;;5043823;28;20077;-71
2024/01/21 14:45:21;;;;;;;6.47;2.60;;;;;;;;;;5046548;28;20055;-70
2024/01/21 14:47:48;;;;;;;8.35;2.90;;;;;;;;;;5050640;28;20515;-71
2024/01/21 14:50:16;;;;;;;9.15;2.38;;;;;;;;;;5040894;28;20139;-70
2024/01/21 14:52:42;;;;;;;7.43;1.90;;;;;;;;;;5039752;28;20548;-70
2024/01/21 14:55:09;;;;;;;6.63;2.10;;;;;;;;;;5051427;28;20214;-70
2024/01/21 14:57:36;;;;;;;9.15;2.50;;;;;;;;;;5041779;28;20452;-70
2024/01/21 15:00:05;;;;;;;8.10;2.38;;;;;;;;;;5054220;28;20120;-72
2024/01/21 15:02:32;;;;;;;5.20;2.20;;;;;;;;;;5038221;28;20075;-68
2024/01/21 15:04:59;;;;;;;5.63;2.08;;;;;;;;;;5046875;28;20136;-70
2024/01/21 15:07:26;;;;;;;4.88;1.80;;;;;;;;;;5041005;28;20263;-70
2024/01/21 15:09:52;;;;;;;6.18;2.03;;;;;;;;;;5035623;28;20284;-70
2024/01/21 15:12:19;;;;;;;7.07;1.90;;;;;;;;;;5038194;28;20205;-69
2024/01/21 15:14:55;;;;;;;7.93;2.08;;;;;;;;;;5045116;28;20075;-70
2024/01/21 15:17:21;;;;;;;8.07;2.20;;;;;;;;;;5035157;28;20076;-69
2024/01/21 15:19:49;;;;;;;7.43;2.30;;;;;;;;;;5045816;28;20060;-69
2024/01/21 15:22:16;;;;;;;8.43;2.55;;;;;;;;;;5038272;28;20564;-72
2024/01/21 15:24:43;;;;;;;5.95;2.25;;;;;;;;;;5041482;28;20052;-70
2024/01/21 15:27:09;;;;;;;5.40;2.00;;;;;;;;;;5052943;28;20150;-69
2024/01/21 15:29:35;;;;;;;7.57;2.15;;;;;;;;;;5038016;28;20049;-70
2024/01/21 15:32:03;;;;;;;8.00;2.47;;;;;;;;;;5046567;28;20056;-70
2024/01/21 15:34:30;;;;;;;5.70;2.30;;;;;;;;;;5068620;28;20079;-68
2024/01/21 15:36:57;;;;;;;6.47;1.70;;;;;;;;;;5047553;28;20444;-71
2024/01/21 15:39:24;;;;;;;7.13;1.92;;;;;;;;;;5037772;28;20485;-69
2024/01/21 15:41:50;;;;;;;7.45;2.00;;;;;;;;;;5036901;28;20044;-69
2024/01/21 15:44:17;;;;;;;6.93;1.98;;;;;;;;;;5042626;28;20057;-70
2024/01/21 15:46:44;;;;;;;7.22;1.95;;;;;;;;;;5038164;28;20063;-68
2024/01/21 15:49:11;;;;;;;3.97;1.85;;;;;;;;;;5046540;28;20115;-69
2024/01/21 15:51:39;;;;;;;5.30;1.83;;;;;;;;;;5049527;28;20452;-70
2024/01/21 15:54:12;;;;;;;5.00;1.80;;;;;;;;;;5043004;28;20501;-69
2024/01/21 15:56:40;;;;;;;8.70;1.88;;;;;;;;;;5047974;28;20053;-69
2024/01/21 15:59:07;;;;;;;7.75;1.75;;;;;;;;;;5049957;28;20049;-69
2024/01/21 16:01:34;;;;;;;6.85;2.33;;;;;;;;;;5039645;28;20057;-70
2024/01/21 16:04:00;;;;;;;6.78;2.53;;;;;;;;;;5063578;28;20064;-70
2024/01/21 16:06:26;;;;;;;5.72;1.70;;;;;;;;;;5041200;28;20443;-71
2024/01/21 16:08:52;;;;;;;5.13;2.00;;;;;;;;;;5051713;28;20497;-69
2024/01/21 16:11:20;;;;;;;7.82;2.00;;;;;;;;;;5049905;28;20053;-68
2024/01/21 16:13:46;;;;;;;8.18;1.88;;;;;;;;;;5063710;28;20123;-69
2024/01/21 16:16:15;;;;;;;6.90;1.77;;;;;;;;;;5051128;28;20128;-71
2024/01/21 16:18:42;;;;;;;5.97;2.15;;;;;;;;;;5047166;28;20504;-69
2024/01/21 16:21:10;;;;;;;10.70;2.22;;;;;;;;;;5044493;28;20440;-70
2024/01/21 16:23:36;;;;;;;12.20;2.53;;;;;;;;;;5053320;28;20159;-71
2024/01/21 16:26:03;;;;;;;7.85;1.90;;;;;;;;;;5052165;28;20045;-68
2024/01/21 16:28:30;;;;;;;15.57;2.25;;;;;;;;;;5044294;28;20041;-71
2024/01/21 16:30:57;;;;;;;8.70;2.28;;;;;;;;;;5039839;28;20114;-70
2024/01/21 16:33:27;;;;;;;5.60;2.50;;;;;;;;;;5041337;28;20099;-70
2024/01/21 16:35:55;;;;;;;7.38;2.08;;;;;;;;;;5041269;28;20065;-71
2024/01/21 16:38:21;;;;;;;10.77;2.10;;;;;;;;;;5044469;28;20063;-69
2024/01/21 16:40:50;;;;;;;9.40;2.05;;;;;;;;;;5031394;28;20057;-69
2024/01/21 16:43:16;;;;;;;6.63;2.15;;;;;;;;;;5042197;28;20048;-69
2024/01/21 16:45:44;;;;;;;14.40;2.85;;;;;;;;;;5048824;28;20045;-71
2024/01/21 16:48:11;;;;;;;9.27;2.03;;;;;;;;;;5045082;28;20052;-70
2024/01/21 16:50:36;;;;;;;8.70;2.47;;;;;;;;;;5044474;28;20048;-72
2024/01/21 16:53:14;;;;;;;13.25;2.28;;;;;;;;;;5019391;28;20202;-71
2024/01/21 16:55:42;;;;;;;7.93;2.28;;;;;;;;;;5030738;28;20052;-70
2024/01/21 16:58:13;;;;;;;10.55;2.20;;;;;;;;;;5049628;28;20053;-72
2024/01/21 17:00:46;;;;;;;10.80;2.20;;;;;;;;;;5035439;28;20041;-71
2024/01/21 17:03:15;;;;;;;10.80;2.72;;;;;;;;;;5046847;28;20091;-71
2024/01/21 17:05:44;;;;;;;12.45;2.67;;;;;;;;;;5062400;28;20704;-69
2024/01/21 17:08:55;;;;;;;9.98;2.40;;;;;;;;;;5049530;28;20056;-75
2024/01/21 17:12:37;;;;;;;10.68;2.08;;;;;;;;;;5051954;28;20048;-71
2024/01/21 17:15:39;;;;;;;9.55;2.22;;;;;;;;;;5041748;28;20145;-72
2024/01/21 17:19:05;;;;;;;9.90;2.30;;;;;;;;;;5045884;28;20449;-69
2024/01/21 17:22:45;;;;;;;10.00;2.50;;;;;;;;;;5044608;28;20037;-73
2024/01/21 17:26:26;;;;;;;14.43;2.75;;;;;;;;;;5048020;28;20118;-71
2024/01/21 17:30:06;;;;;;;13.20;2.33;;;;;;;;;;5047377;28;20048;-71
2024/01/21 17:33:47;;;;;;;11.57;2.33;;;;;;;;;;5048876;28;20049;-70
2024/01/21 17:37:28;;;;;;;9.90;2.50;;;;;;;;;;5043167;28;20106;-70
2024/01/21 17:41:09;;;;;;;12.98;2.78;;;;;;;;;;5041904;28;20586;-75
2024/01/21 17:44:52;;;;;;;9.32;2.35;;;;;;;;;;5041626;28;20401;-69
2024/01/21 17:48:32;;;;;;;17.38;3.78;;;;;;;;;;5043296;28;20045;-75
2024/01/21 17:52:13;;;;;;;14.32;2.90;;;;;;;;;;5048964;28;20045;-71
2024/01/21 17:55:54;;;;;;;16.45;4.03;;;;;;;;;;5042865;28;20057;-71
2024/01/21 17:59:35;;;;;;;10.55;3.03;;;;;;;;;;5031540;28;20054;-71
2024/01/21 18:03:16;;;;;;;12.70;2.78;;;;;;;;;;5026274;28;20072;-73
2024/01/21 18:06:57;;;;;;;16.42;3.67;;;;;;;;;;5034887;28;20053;-70
2024/01/21 18:10:37;;;;;;;14.10;3.10;;;;;;;;;;5033598;28;20505;-71
2024/01/21 18:14:20;;;;;;;15.77;2.85;;;;;;;;;;5030945;28;20495;-69
2024/01/21 18:18:02;;;;;;;12.10;2.40;;;;;;;;;;5032591;28;20527;-72
2024/01/21 18:21:45;;;;;;;15.55;2.80;;;;;;;;;;5032574;28;20053;-72
2024/01/21 18:25:23;;;;;;;18.35;2.85;;;;;;;;;;5035579;28;20045;-69
2024/01/21 18:29:05;;;;;;;17.27;3.00;;;;;;;;;;5029705;28;20130;-72
2024/01/21 18:32:45;;;;;;;14.45;2.92;;;;;;;;;;5032228;28;20502;-73
2024/01/21 18:36:26;;;;;;;19.10;3.05;;;;;;;;;;5030902;28;20119;-70
2024/01/21 18:40:07;;;;;;;14.15;3.58;;;;;;;;;;5033865;28;20481;-71
2024/01/21 18:43:48;;;;;;;15.90;2.47;;;;;;;;;;5031076;28;20518;-72
2024/01/21 18:47:29;;;;;;;18.33;3.40;;;;;;;;;;5031583;28;20053;-70
2024/01/21 18:51:11;;;;;;;10.68;3.00;;;;;;;;;;5034549;28;20041;-68
2024/01/21 18:54:56;;;;;;;20.58;3.20;;;;;;;;;;5035436;28;20145;-69
2024/01/21 18:58:35;;;;;;;11.98;2.90;;;;;;;;;;5030868;28;20241;-73
2024/01/21 19:02:18;;;;;;;13.07;2.42;;;;;;;;;;5030214;28;20053;-71